Aviation Digital Data Service (ADDS)

Output produced by METARs form (0757 UTC 20 March 2019)
found at http://www.aviationweather.gov/metar/data/
 
Forecast for: RPLB (OLONGAPO/SUBIC , PH)
Text: TAF RPLB 200500Z 2006/2106 07008KT 9999 FEW020 SCT300 TX35/2006Z TN23/2022Z
Forecast period: 0600 UTC 20 March 2019 to 0600 UTC 21 March 2019
Forecast type: FROM: standard forecast or significant change
Winds: from the ENE (70 degrees) at 9 MPH (8 knots; 4.1 m/s)
Visibility: 6 or more miles 10+ km)
Ceiling: at least 12,000 feet AGL
Clouds: few clouds at 2000 feet AGL
scattered clouds at 30000 feet AGL
Weather: no significant weather forecast for this period
Text: TEMPO 2006/2012 09014KT FEW018 BKN300
Forecast period: 0600 to 1200 UTC 20 March 2019
Forecast type: TEMPORARY: The following changes expected for less than half the time period
Winds: from the E (90 degrees) at 16 MPH (14 knots; 7.2 m/s)
Visibility: missing
Ceiling: 30000 feet AGL
Clouds: few clouds at 1800 feet AGL
broken clouds at 30000 feet AGL
Weather: no significant weather forecast for this period